sensor_id;sensor_type;location;lat;lon;timestamp;temperature;humidity
9446;DHT22;4761;49.490;10.908;2022-11-22T00:00:24;15.40;41.20
9446;DHT22;4761;49.490;10.908;2022-11-22T00:02:50;15.40;41.20
9446;DHT22;4761;49.490;10.908;2022-11-22T00:05:15;15.40;41.20
9446;DHT22;4761;49.490;10.908;2022-11-22T00:07:41;15.50;41.30
9446;DHT22;4761;49.490;10.908;2022-11-22T00:10:08;15.50;41.20
9446;DHT22;4761;49.490;10.908;2022-11-22T00:12:35;15.40;41.20
9446;DHT22;4761;49.490;10.908;2022-11-22T00:15:01;15.40;41.20
9446;DHT22;4761;49.490;10.908;2022-11-22T00:17:27;15.40;41.20
9446;DHT22;4761;49.490;10.908;2022-11-22T00:19:52;15.40;41.20
9446;DHT22;4761;49.490;10.908;2022-11-22T00:22:18;15.40;41.20
9446;DHT22;4761;49.490;10.908;2022-11-22T00:24:43;15.40;41.20
9446;DHT22;4761;49.490;10.908;2022-11-22T00:27:10;15.40;41.20
9446;DHT22;4761;49.490;10.908;2022-11-22T00:29:36;15.40;41.20
9446;DHT22;4761;49.490;10.908;2022-11-22T00:32:02;15.50;41.30
9446;DHT22;4761;49.490;10.908;2022-11-22T00:34:27;15.40;41.10
9446;DHT22;4761;49.490;10.908;2022-11-22T00:36:53;15.40;41.10
9446;DHT22;4761;49.490;10.908;2022-11-22T00:39:18;15.50;41.20
9446;DHT22;4761;49.490;10.908;2022-11-22T00:41:44;15.40;41.20
9446;DHT22;4761;49.490;10.908;2022-11-22T00:44:09;15.40;41.20
9446;DHT22;4761;49.490;10.908;2022-11-22T00:46:35;15.40;41.20
9446;DHT22;4761;49.490;10.908;2022-11-22T00:49:01;15.50;41.20
9446;DHT22;4761;49.490;10.908;2022-11-22T00:51:26;15.50;41.20
9446;DHT22;4761;49.490;10.908;2022-11-22T00:53:52;15.40;41.10
9446;DHT22;4761;49.490;10.908;2022-11-22T00:56:17;15.40;41.10
9446;DHT22;4761;49.490;10.908;2022-11-22T00:58:43;15.50;41.10
9446;DHT22;4761;49.490;10.908;2022-11-22T01:01:08;15.40;41.10
9446;DHT22;4761;49.490;10.908;2022-11-22T01:03:34;15.40;41.00
9446;DHT22;4761;49.490;10.908;2022-11-22T01:06:00;15.40;41.00
9446;DHT22;4761;49.490;10.908;2022-11-22T01:08:25;15.50;41.00
9446;DHT22;4761;49.490;10.908;2022-11-22T01:10:56;15.40;41.00
9446;DHT22;4761;49.490;10.908;2022-11-22T01:13:21;15.50;41.00
9446;DHT22;4761;49.490;10.908;2022-11-22T01:15:47;15.50;41.00
9446;DHT22;4761;49.490;10.908;2022-11-22T01:18:13;15.40;41.00
9446;DHT22;4761;49.490;10.908;2022-11-22T01:20:39;15.40;40.90
9446;DHT22;4761;49.490;10.908;2022-11-22T01:23:05;15.40;41.00
9446;DHT22;4761;49.490;10.908;2022-11-22T01:25:30;15.40;41.00
9446;DHT22;4761;49.490;10.908;2022-11-22T01:27:56;15.40;41.00
9446;DHT22;4761;49.490;10.908;2022-11-22T01:30:22;15.40;41.00
9446;DHT22;4761;49.490;10.908;2022-11-22T01:32:47;15.50;41.00
9446;DHT22;4761;49.490;10.908;2022-11-22T01:35:13;15.50;41.00
9446;DHT22;4761;49.490;10.908;2022-11-22T01:37:38;15.40;40.90
9446;DHT22;4761;49.490;10.908;2022-11-22T01:40:05;15.40;40.90
9446;DHT22;4761;49.490;10.908;2022-11-22T01:50:50;15.40;40.80
9446;DHT22;4761;49.490;10.908;2022-11-22T01:53:20;15.50;40.90
9446;DHT22;4761;49.490;10.908;2022-11-22T01:55:47;15.40;40.80
9446;DHT22;4761;49.490;10.908;2022-11-22T01:58:14;15.40;40.90
9446;DHT22;4761;49.490;10.908;2022-11-22T02:00:41;15.50;41.00
9446;DHT22;4761;49.490;10.908;2022-11-22T02:03:11;15.50;40.90
9446;DHT22;4761;49.490;10.908;2022-11-22T02:05:37;15.50;40.80
9446;DHT22;4761;49.490;10.908;2022-11-22T02:08:26;15.40;40.70
9446;DHT22;4761;49.490;10.908;2022-11-22T02:10:55;15.40;40.70
9446;DHT22;4761;49.490;10.908;2022-11-22T02:13:22;15.40;40.80
9446;DHT22;4761;49.490;10.908;2022-11-22T02:15:50;15.40;40.80
9446;DHT22;4761;49.490;10.908;2022-11-22T02:18:16;15.40;40.70
9446;DHT22;4761;49.490;10.908;2022-11-22T02:20:42;15.50;40.80
9446;DHT22;4761;49.490;10.908;2022-11-22T02:23:40;15.50;41.40
9446;DHT22;4761;49.490;10.908;2022-11-22T02:26:09;15.40;40.70
9446;DHT22;4761;49.490;10.908;2022-11-22T02:28:36;15.40;40.70
9446;DHT22;4761;49.490;10.908;2022-11-22T02:31:02;15.40;40.70
9446;DHT22;4761;49.490;10.908;2022-11-22T02:33:28;15.40;40.80
9446;DHT22;4761;49.490;10.908;2022-11-22T02:35:54;15.50;40.80
9446;DHT22;4761;49.490;10.908;2022-11-22T02:38:28;15.50;40.80
9446;DHT22;4761;49.490;10.908;2022-11-22T02:41:08;15.50;40.70
9446;DHT22;4761;49.490;10.908;2022-11-22T02:43:40;15.60;40.60
9446;DHT22;4761;49.490;10.908;2022-11-22T02:46:11;15.60;41.20
9446;DHT22;4761;49.490;10.908;2022-11-22T02:48:41;15.60;40.50
9446;DHT22;4761;49.490;10.908;2022-11-22T02:51:07;15.70;40.60
9446;DHT22;4761;49.490;10.908;2022-11-22T02:53:32;15.60;40.50
9446;DHT22;4761;49.490;10.908;2022-11-22T02:55:58;15.60;40.50
9446;DHT22;4761;49.490;10.908;2022-11-22T02:58:24;15.60;40.50
9446;DHT22;4761;49.490;10.908;2022-11-22T03:00:49;15.60;40.50
9446;DHT22;4761;49.490;10.908;2022-11-22T03:03:15;15.60;40.60
9446;DHT22;4761;49.490;10.908;2022-11-22T03:05:40;15.60;40.70
9446;DHT22;4761;49.490;10.908;2022-11-22T03:08:06;15.60;40.70
9446;DHT22;4761;49.490;10.908;2022-11-22T03:10:31;15.60;40.70
9446;DHT22;4761;49.490;10.908;2022-11-22T03:12:57;15.60;40.70
9446;DHT22;4761;49.490;10.908;2022-11-22T03:15:23;15.60;40.70
9446;DHT22;4761;49.490;10.908;2022-11-22T03:17:49;15.60;40.70
9446;DHT22;4761;49.490;10.908;2022-11-22T03:20:20;15.60;40.70
9446;DHT22;4761;49.490;10.908;2022-11-22T03:22:46;15.60;40.70
9446;DHT22;4761;49.490;10.908;2022-11-22T03:25:11;15.60;40.70
9446;DHT22;4761;49.490;10.908;2022-11-22T03:27:37;15.60;40.60
9446;DHT22;4761;49.490;10.908;2022-11-22T03:30:03;15.60;40.60
9446;DHT22;4761;49.490;10.908;2022-11-22T03:32:28;15.60;40.60
9446;DHT22;4761;49.490;10.908;2022-11-22T03:34:54;15.60;40.60
9446;DHT22;4761;49.490;10.908;2022-11-22T03:37:19;15.60;40.70
9446;DHT22;4761;49.490;10.908;2022-11-22T03:39:45;15.60;40.80
9446;DHT22;4761;49.490;10.908;2022-11-22T03:42:10;15.60;40.80
9446;DHT22;4761;49.490;10.908;2022-11-22T03:44:36;15.60;40.80
9446;DHT22;4761;49.490;10.908;2022-11-22T03:47:01;15.60;40.70
9446;DHT22;4761;49.490;10.908;2022-11-22T03:49:27;15.60;40.70
9446;DHT22;4761;49.490;10.908;2022-11-22T03:51:52;15.60;40.70
9446;DHT22;4761;49.490;10.908;2022-11-22T03:54:18;15.60;40.80
9446;DHT22;4761;49.490;10.908;2022-11-22T03:56:43;15.50;40.80
9446;DHT22;4761;49.490;10.908;2022-11-22T03:59:09;15.60;40.80
9446;DHT22;4761;49.490;10.908;2022-11-22T04:01:34;15.60;40.80
9446;DHT22;4761;49.490;10.908;2022-11-22T04:04:00;15.60;40.80
9446;DHT22;4761;49.490;10.908;2022-11-22T04:06:25;15.60;40.90
9446;DHT22;4761;49.490;10.908;2022-11-22T04:08:51;15.60;41.00
9446;DHT22;4761;49.490;10.908;2022-11-22T04:11:16;15.50;40.90
9446;DHT22;4761;49.490;10.908;2022-11-22T04:13:42;15.60;41.10
9446;DHT22;4761;49.490;10.908;2022-11-22T04:16:26;15.50;41.00
9446;DHT22;4761;49.490;10.908;2022-11-22T04:18:52;15.50;41.00
9446;DHT22;4761;49.490;10.908;2022-11-22T04:21:17;15.50;41.00
9446;DHT22;4761;49.490;10.908;2022-11-22T04:23:58;15.60;41.10
9446;DHT22;4761;49.490;10.908;2022-11-22T04:26:42;15.60;41.20
9446;DHT22;4761;49.490;10.908;2022-11-22T04:29:07;15.50;41.10
9446;DHT22;4761;49.490;10.908;2022-11-22T04:31:33;15.50;41.20
9446;DHT22;4761;49.490;10.908;2022-11-22T04:34:17;15.60;41.30
9446;DHT22;4761;49.490;10.908;2022-11-22T04:36:42;15.50;41.20
9446;DHT22;4761;49.490;10.908;2022-11-22T04:39:08;15.50;41.20
9446;DHT22;4761;49.490;10.908;2022-11-22T04:41:33;15.50;41.30
9446;DHT22;4761;49.490;10.908;2022-11-22T04:43:59;15.50;41.30
9446;DHT22;4761;49.490;10.908;2022-11-22T04:46:43;15.50;41.40
9446;DHT22;4761;49.490;10.908;2022-11-22T04:49:09;15.50;41.40
9446;DHT22;4761;49.490;10.908;2022-11-22T04:51:34;15.50;41.40
9446;DHT22;4761;49.490;10.908;2022-11-22T04:54:18;15.60;41.50
9446;DHT22;4761;49.490;10.908;2022-11-22T04:56:44;15.50;41.50
9446;DHT22;4761;49.490;10.908;2022-11-22T04:59:09;15.60;41.60
9446;DHT22;4761;49.490;10.908;2022-11-22T05:01:35;15.50;41.50
9446;DHT22;4761;49.490;10.908;2022-11-22T05:04:00;15.50;41.50
9446;DHT22;4761;49.490;10.908;2022-11-22T05:06:26;15.50;41.60
9446;DHT22;4761;49.490;10.908;2022-11-22T05:08:51;15.50;41.50
9446;DHT22;4761;49.490;10.908;2022-11-22T05:11:17;15.50;42.20
9446;DHT22;4761;49.490;10.908;2022-11-22T05:13:43;15.50;41.60
9446;DHT22;4761;49.490;10.908;2022-11-22T05:16:10;15.50;41.60
9446;DHT22;4761;49.490;10.908;2022-11-22T05:18:36;15.50;41.60
9446;DHT22;4761;49.490;10.908;2022-11-22T05:21:09;15.50;41.70
9446;DHT22;4761;49.490;10.908;2022-11-22T05:23:35;15.50;41.70
9446;DHT22;4761;49.490;10.908;2022-11-22T05:26:29;15.50;41.70
9446;DHT22;4761;49.490;10.908;2022-11-22T05:28:56;15.50;41.70
9446;DHT22;4761;49.490;10.908;2022-11-22T05:31:25;15.50;41.70
9446;DHT22;4761;49.490;10.908;2022-11-22T05:33:53;15.50;41.80
9446;DHT22;4761;49.490;10.908;2022-11-22T05:36:20;15.50;41.80
9446;DHT22;4761;49.490;10.908;2022-11-22T05:38:46;15.50;41.80
9446;DHT22;4761;49.490;10.908;2022-11-22T05:41:13;15.50;41.80
9446;DHT22;4761;49.490;10.908;2022-11-22T05:43:38;15.50;41.80
9446;DHT22;4761;49.490;10.908;2022-11-22T05:46:05;15.50;41.80
9446;DHT22;4761;49.490;10.908;2022-11-22T05:48:31;15.50;41.80
9446;DHT22;4761;49.490;10.908;2022-11-22T05:50:56;15.50;41.90
9446;DHT22;4761;49.490;10.908;2022-11-22T05:53:22;15.50;41.90
9446;DHT22;4761;49.490;10.908;2022-11-22T05:55:47;15.50;42.00
9446;DHT22;4761;49.490;10.908;2022-11-22T05:58:14;15.50;42.00
9446;DHT22;4761;49.490;10.908;2022-11-22T06:00:39;15.50;42.00
9446;DHT22;4761;49.490;10.908;2022-11-22T06:03:05;15.50;42.00
9446;DHT22;4761;49.490;10.908;2022-11-22T06:05:30;15.50;42.10
9446;DHT22;4761;49.490;10.908;2022-11-22T06:08:00;15.50;42.20
9446;DHT22;4761;49.490;10.908;2022-11-22T06:10:27;15.50;42.20
9446;DHT22;4761;49.490;10.908;2022-11-22T06:12:53;15.50;42.20
9446;DHT22;4761;49.490;10.908;2022-11-22T06:15:19;15.50;42.20
9446;DHT22;4761;49.490;10.908;2022-11-22T06:17:45;15.50;42.20
9446;DHT22;4761;49.490;10.908;2022-11-22T06:20:11;15.50;42.30
9446;DHT22;4761;49.490;10.908;2022-11-22T06:22:36;15.50;42.30
9446;DHT22;4761;49.490;10.908;2022-11-22T06:25:02;15.50;42.40
9446;DHT22;4761;49.490;10.908;2022-11-22T06:27:28;15.40;42.40
9446;DHT22;4761;49.490;10.908;2022-11-22T06:29:54;15.50;42.50
9446;DHT22;4761;49.490;10.908;2022-11-22T06:32:19;15.50;42.50
9446;DHT22;4761;49.490;10.908;2022-11-22T06:34:45;15.50;42.50
9446;DHT22;4761;49.490;10.908;2022-11-22T06:37:14;15.40;42.50
9446;DHT22;4761;49.490;10.908;2022-11-22T06:39:40;15.50;42.50
9446;DHT22;4761;49.490;10.908;2022-11-22T06:42:06;15.50;42.60
9446;DHT22;4761;49.490;10.908;2022-11-22T06:44:31;15.50;42.70
9446;DHT22;4761;49.490;10.908;2022-11-22T06:46:58;15.50;42.70
9446;DHT22;4761;49.490;10.908;2022-11-22T06:49:23;15.50;42.80
9446;DHT22;4761;49.490;10.908;2022-11-22T06:51:49;15.50;42.70
9446;DHT22;4761;49.490;10.908;2022-11-22T06:54:15;15.50;42.80
9446;DHT22;4761;49.490;10.908;2022-11-22T06:56:41;15.50;42.80
9446;DHT22;4761;49.490;10.908;2022-11-22T06:59:07;15.50;42.80
9446;DHT22;4761;49.490;10.908;2022-11-22T07:01:33;15.50;42.90
9446;DHT22;4761;49.490;10.908;2022-11-22T07:04:00;15.50;43.00
9446;DHT22;4761;49.490;10.908;2022-11-22T07:06:36;15.50;43.00
9446;DHT22;4761;49.490;10.908;2022-11-22T07:09:05;15.40;43.60
9446;DHT22;4761;49.490;10.908;2022-11-22T07:11:31;15.40;44.10
9446;DHT22;4761;49.490;10.908;2022-11-22T07:13:59;15.40;44.40
9446;DHT22;4761;49.490;10.908;2022-11-22T07:16:25;15.50;44.60
9446;DHT22;4761;49.490;10.908;2022-11-22T07:18:50;15.50;44.70
9446;DHT22;4761;49.490;10.908;2022-11-22T07:21:21;15.60;44.80
9446;DHT22;4761;49.490;10.908;2022-11-22T07:23:49;15.70;44.70
9446;DHT22;4761;49.490;10.908;2022-11-22T07:26:17;15.80;44.70
9446;DHT22;4761;49.490;10.908;2022-11-22T07:28:43;15.80;44.50
9446;DHT22;4761;49.490;10.908;2022-11-22T07:31:11;15.90;44.40
9446;DHT22;4761;49.490;10.908;2022-11-22T07:33:37;16.00;44.80
9446;DHT22;4761;49.490;10.908;2022-11-22T07:36:05;16.00;43.90
9446;DHT22;4761;49.490;10.908;2022-11-22T07:38:31;16.10;43.80
9446;DHT22;4761;49.490;10.908;2022-11-22T07:40:57;16.10;43.50
9446;DHT22;4761;49.490;10.908;2022-11-22T07:43:22;16.20;43.40
9446;DHT22;4761;49.490;10.908;2022-11-22T07:45:48;16.20;43.20
9446;DHT22;4761;49.490;10.908;2022-11-22T07:48:13;16.30;43.20
9446;DHT22;4761;49.490;10.908;2022-11-22T07:50:40;16.30;43.00
9446;DHT22;4761;49.490;10.908;2022-11-22T07:53:06;16.30;42.90
9446;DHT22;4761;49.490;10.908;2022-11-22T07:55:32;16.40;42.90
9446;DHT22;4761;49.490;10.908;2022-11-22T07:57:58;16.40;42.80
9446;DHT22;4761;49.490;10.908;2022-11-22T08:00:25;16.40;42.70
9446;DHT22;4761;49.490;10.908;2022-11-22T08:02:51;16.50;42.80
9446;DHT22;4761;49.490;10.908;2022-11-22T08:05:16;16.60;42.70
9446;DHT22;4761;49.490;10.908;2022-11-22T08:07:50;16.60;42.70
9446;DHT22;4761;49.490;10.908;2022-11-22T08:10:16;16.60;42.60
9446;DHT22;4761;49.490;10.908;2022-11-22T08:12:42;16.70;42.70
9446;DHT22;4761;49.490;10.908;2022-11-22T08:15:09;16.70;42.70
9446;DHT22;4761;49.490;10.908;2022-11-22T08:17:35;16.70;42.60
9446;DHT22;4761;49.490;10.908;2022-11-22T08:20:00;16.80;42.60
9446;DHT22;4761;49.490;10.908;2022-11-22T08:22:26;16.80;42.60
9446;DHT22;4761;49.490;10.908;2022-11-22T08:24:52;16.80;42.60
9446;DHT22;4761;49.490;10.908;2022-11-22T08:27:17;16.80;42.60
9446;DHT22;4761;49.490;10.908;2022-11-22T08:29:43;16.80;42.60
9446;DHT22;4761;49.490;10.908;2022-11-22T08:32:08;16.90;42.70
9446;DHT22;4761;49.490;10.908;2022-11-22T08:34:34;16.90;42.70
9446;DHT22;4761;49.490;10.908;2022-11-22T08:36:59;16.80;42.60
9446;DHT22;4761;49.490;10.908;2022-11-22T08:39:25;16.90;42.70
9446;DHT22;4761;49.490;10.908;2022-11-22T08:41:50;16.90;42.80
9446;DHT22;4761;49.490;10.908;2022-11-22T08:44:16;16.90;42.90
9446;DHT22;4761;49.490;10.908;2022-11-22T08:46:41;16.90;43.00
9446;DHT22;4761;49.490;10.908;2022-11-22T08:49:09;17.00;43.00
9446;DHT22;4761;49.490;10.908;2022-11-22T08:51:35;17.00;43.00
9446;DHT22;4761;49.490;10.908;2022-11-22T08:54:01;17.10;42.80
9446;DHT22;4761;49.490;10.908;2022-11-22T08:56:27;17.00;42.90
9446;DHT22;4761;49.490;10.908;2022-11-22T08:58:53;16.90;43.10
9446;DHT22;4761;49.490;10.908;2022-11-22T09:01:19;16.80;43.40
9446;DHT22;4761;49.490;10.908;2022-11-22T09:03:46;16.70;43.80
9446;DHT22;4761;49.490;10.908;2022-11-22T09:06:17;16.60;44.10
9446;DHT22;4761;49.490;10.908;2022-11-22T09:08:43;16.50;44.40
9446;DHT22;4761;49.490;10.908;2022-11-22T09:11:11;16.40;44.60
9446;DHT22;4761;49.490;10.908;2022-11-22T09:13:37;16.40;44.80
9446;DHT22;4761;49.490;10.908;2022-11-22T09:16:09;16.40;45.00
9446;DHT22;4761;49.490;10.908;2022-11-22T09:18:35;16.30;45.00
9446;DHT22;4761;49.490;10.908;2022-11-22T09:21:02;16.30;45.00
9446;DHT22;4761;49.490;10.908;2022-11-22T09:23:28;16.30;45.20
9446;DHT22;4761;49.490;10.908;2022-11-22T09:26:05;16.40;45.40
9446;DHT22;4761;49.490;10.908;2022-11-22T09:28:31;16.30;45.50
9446;DHT22;4761;49.490;10.908;2022-11-22T09:31:01;16.30;45.50
9446;DHT22;4761;49.490;10.908;2022-11-22T09:33:27;16.30;45.70
9446;DHT22;4761;49.490;10.908;2022-11-22T09:36:01;16.30;45.80
9446;DHT22;4761;49.490;10.908;2022-11-22T09:38:27;16.40;45.90
9446;DHT22;4761;49.490;10.908;2022-11-22T09:40:53;16.40;45.90
9446;DHT22;4761;49.490;10.908;2022-11-22T09:46:00;16.40;46.10
9446;DHT22;4761;49.490;10.908;2022-11-22T09:48:43;16.40;46.10
9446;DHT22;4761;49.490;10.908;2022-11-22T09:51:18;16.40;46.30
9446;DHT22;4761;49.490;10.908;2022-11-22T09:56:19;16.40;46.40
9446;DHT22;4761;49.490;10.908;2022-11-22T10:01:19;16.40;46.20
9446;DHT22;4761;49.490;10.908;2022-11-22T10:03:51;16.40;46.20
9446;DHT22;4761;49.490;10.908;2022-11-22T10:06:28;16.40;46.30
9446;DHT22;4761;49.490;10.908;2022-11-22T10:12:06;16.50;46.30
9446;DHT22;4761;49.490;10.908;2022-11-22T10:17:25;16.50;46.30
9446;DHT22;4761;49.490;10.908;2022-11-22T10:20:06;16.50;46.20
9446;DHT22;4761;49.490;10.908;2022-11-22T10:22:36;16.50;46.10
9446;DHT22;4761;49.490;10.908;2022-11-22T10:25:26;16.40;46.00
9446;DHT22;4761;49.490;10.908;2022-11-22T10:27:59;16.50;46.00
9446;DHT22;4761;49.490;10.908;2022-11-22T10:30:31;16.50;46.00
9446;DHT22;4761;49.490;10.908;2022-11-22T10:33:17;16.50;46.00
9446;DHT22;4761;49.490;10.908;2022-11-22T10:36:25;16.50;46.00
9446;DHT22;4761;49.490;10.908;2022-11-22T10:39:16;16.50;45.80
9446;DHT22;4761;49.490;10.908;2022-11-22T10:52:38;16.50;45.40
9446;DHT22;4761;49.490;10.908;2022-11-22T10:58:07;16.50;45.50
9446;DHT22;4761;49.490;10.908;2022-11-22T11:00:43;16.50;45.50
9446;DHT22;4761;49.490;10.908;2022-11-22T11:03:29;16.50;45.40
9446;DHT22;4761;49.490;10.908;2022-11-22T11:08:55;16.40;45.20
9446;DHT22;4761;49.490;10.908;2022-11-22T11:11:24;16.40;45.20
9446;DHT22;4761;49.490;10.908;2022-11-22T11:13:53;16.40;45.30
9446;DHT22;4761;49.490;10.908;2022-11-22T11:16:25;16.40;45.30
9446;DHT22;4761;49.490;10.908;2022-11-22T11:21:21;16.40;45.40
9446;DHT22;4761;49.490;10.908;2022-11-22T11:23:47;16.40;45.40
9446;DHT22;4761;49.490;10.908;2022-11-22T11:26:25;16.40;45.40
9446;DHT22;4761;49.490;10.908;2022-11-22T11:31:50;16.40;45.10
9446;DHT22;4761;49.490;10.908;2022-11-22T11:34:26;16.40;46.90
9446;DHT22;4761;49.490;10.908;2022-11-22T11:36:55;16.50;47.40
9446;DHT22;4761;49.490;10.908;2022-11-22T11:39:26;16.50;47.20
9446;DHT22;4761;49.490;10.908;2022-11-22T11:41:52;16.50;46.80
9446;DHT22;4761;49.490;10.908;2022-11-22T11:44:27;16.30;45.40
9446;DHT22;4761;49.490;10.908;2022-11-22T11:46:53;16.30;44.70
9446;DHT22;4761;49.490;10.908;2022-11-22T11:49:29;16.30;44.40
9446;DHT22;4761;49.490;10.908;2022-11-22T11:52:04;16.40;44.10
9446;DHT22;4761;49.490;10.908;2022-11-22T11:54:46;16.50;43.70
9446;DHT22;4761;49.490;10.908;2022-11-22T11:57:26;16.60;43.50
9446;DHT22;4761;49.490;10.908;2022-11-22T11:59:52;16.60;43.20
9446;DHT22;4761;49.490;10.908;2022-11-22T12:02:38;16.70;42.90
9446;DHT22;4761;49.490;10.908;2022-11-22T12:07:40;16.90;42.60
9446;DHT22;4761;49.490;10.908;2022-11-22T12:18:55;17.30;42.10
9446;DHT22;4761;49.490;10.908;2022-11-22T12:22:20;17.40;41.90
9446;DHT22;4761;49.490;10.908;2022-11-22T12:24:36;17.50;41.70
9446;DHT22;4761;49.490;10.908;2022-11-22T12:27:03;17.60;41.80
9446;DHT22;4761;49.490;10.908;2022-11-22T12:29:33;17.60;41.70
9446;DHT22;4761;49.490;10.908;2022-11-22T12:32:08;17.80;41.60
9446;DHT22;4761;49.490;10.908;2022-11-22T12:37:16;17.90;41.20
9446;DHT22;4761;49.490;10.908;2022-11-22T12:39:46;17.90;41.00
9446;DHT22;4761;49.490;10.908;2022-11-22T12:42:19;18.00;40.80
9446;DHT22;4761;49.490;10.908;2022-11-22T12:45:09;18.00;40.50
9446;DHT22;4761;49.490;10.908;2022-11-22T12:47:38;18.10;40.30
9446;DHT22;4761;49.490;10.908;2022-11-22T12:50:08;18.10;40.10
9446;DHT22;4761;49.490;10.908;2022-11-22T12:52:44;18.10;39.90
9446;DHT22;4761;49.490;10.908;2022-11-22T12:58:00;18.10;39.70
9446;DHT22;4761;49.490;10.908;2022-11-22T13:00:31;18.10;39.70
9446;DHT22;4761;49.490;10.908;2022-11-22T13:03:11;18.10;41.60
9446;DHT22;4761;49.490;10.908;2022-11-22T13:06:04;18.20;44.20
9446;DHT22;4761;49.490;10.908;2022-11-22T13:08:45;18.10;44.50
9446;DHT22;4761;49.490;10.908;2022-11-22T13:11:38;17.90;44.70
9446;DHT22;4761;49.490;10.908;2022-11-22T13:14:21;17.70;45.00
9446;DHT22;4761;49.490;10.908;2022-11-22T13:16:49;17.50;45.20
9446;DHT22;4761;49.490;10.908;2022-11-22T13:19:16;17.40;45.30
9446;DHT22;4761;49.490;10.908;2022-11-22T13:22:01;17.30;45.50
9446;DHT22;4761;49.490;10.908;2022-11-22T13:27:27;17.10;45.60
9446;DHT22;4761;49.490;10.908;2022-11-22T13:29:56;17.10;45.70
9446;DHT22;4761;49.490;10.908;2022-11-22T13:32:23;17.00;45.70
9446;DHT22;4761;49.490;10.908;2022-11-22T13:37:52;16.90;45.50
9446;DHT22;4761;49.490;10.908;2022-11-22T13:40:32;16.90;45.50
9446;DHT22;4761;49.490;10.908;2022-11-22T13:45:51;16.90;45.30
9446;DHT22;4761;49.490;10.908;2022-11-22T13:51:12;16.80;45.20
9446;DHT22;4761;49.490;10.908;2022-11-22T13:53:40;16.80;45.20
9446;DHT22;4761;49.490;10.908;2022-11-22T14:07:02;16.70;45.00
9446;DHT22;4761;49.490;10.908;2022-11-22T14:09:56;16.70;45.40
9446;DHT22;4761;49.490;10.908;2022-11-22T14:12:49;16.70;45.10
9446;DHT22;4761;49.490;10.908;2022-11-22T14:15:34;16.70;45.00
9446;DHT22;4761;49.490;10.908;2022-11-22T14:18:39;16.70;45.10
9446;DHT22;4761;49.490;10.908;2022-11-22T14:26:31;16.60;45.20
9446;DHT22;4761;49.490;10.908;2022-11-22T14:31:35;16.60;45.10
9446;DHT22;4761;49.490;10.908;2022-11-22T14:47:35;16.50;45.20
9446;DHT22;4761;49.490;10.908;2022-11-22T14:50:03;16.50;45.80
9446;DHT22;4761;49.490;10.908;2022-11-22T14:52:31;16.50;45.20
9446;DHT22;4761;49.490;10.908;2022-11-22T14:54:59;16.50;45.20
9446;DHT22;4761;49.490;10.908;2022-11-22T14:57:28;16.50;45.20
9446;DHT22;4761;49.490;10.908;2022-11-22T15:00:18;16.50;45.20
9446;DHT22;4761;49.490;10.908;2022-11-22T15:03:08;16.50;45.20
9446;DHT22;4761;49.490;10.908;2022-11-22T15:05:59;16.50;45.20
9446;DHT22;4761;49.490;10.908;2022-11-22T15:17:04;16.50;47.40
9446;DHT22;4761;49.490;10.908;2022-11-22T15:19:33;16.50;47.50
9446;DHT22;4761;49.490;10.908;2022-11-22T15:22:26;16.50;47.40
9446;DHT22;4761;49.490;10.908;2022-11-22T15:24:54;16.50;47.20
9446;DHT22;4761;49.490;10.908;2022-11-22T15:27:46;16.50;47.20
9446;DHT22;4761;49.490;10.908;2022-11-22T15:30:17;16.50;47.00
9446;DHT22;4761;49.490;10.908;2022-11-22T15:32:45;16.40;47.40
9446;DHT22;4761;49.490;10.908;2022-11-22T15:35:13;16.40;47.40
9446;DHT22;4761;49.490;10.908;2022-11-22T15:40:18;16.40;46.70
9446;DHT22;4761;49.490;10.908;2022-11-22T15:42:51;16.40;46.60
9446;DHT22;4761;49.490;10.908;2022-11-22T15:45:18;16.40;46.50
9446;DHT22;4761;49.490;10.908;2022-11-22T15:47:48;16.40;46.50
9446;DHT22;4761;49.490;10.908;2022-11-22T15:50:19;16.40;46.40
9446;DHT22;4761;49.490;10.908;2022-11-22T15:52:53;16.40;46.40
9446;DHT22;4761;49.490;10.908;2022-11-22T15:55:21;16.40;46.40
9446;DHT22;4761;49.490;10.908;2022-11-22T15:57:51;16.40;46.40
9446;DHT22;4761;49.490;10.908;2022-11-22T16:00:23;16.40;46.40
9446;DHT22;4761;49.490;10.908;2022-11-22T16:02:56;16.40;46.30
9446;DHT22;4761;49.490;10.908;2022-11-22T16:05:31;16.40;46.20
9446;DHT22;4761;49.490;10.908;2022-11-22T16:08:00;16.40;46.10
9446;DHT22;4761;49.490;10.908;2022-11-22T16:10:38;16.40;46.10
9446;DHT22;4761;49.490;10.908;2022-11-22T16:15:42;16.40;45.90
9446;DHT22;4761;49.490;10.908;2022-11-22T16:18:21;16.40;46.00
9446;DHT22;4761;49.490;10.908;2022-11-22T16:23:45;16.40;46.10
9446;DHT22;4761;49.490;10.908;2022-11-22T16:28:51;16.30;46.10
9446;DHT22;4761;49.490;10.908;2022-11-22T16:31:24;16.30;46.10
9446;DHT22;4761;49.490;10.908;2022-11-22T16:33:52;16.30;46.10
9446;DHT22;4761;49.490;10.908;2022-11-22T16:36:18;16.30;46.10
9446;DHT22;4761;49.490;10.908;2022-11-22T16:38:44;16.30;46.10
9446;DHT22;4761;49.490;10.908;2022-11-22T16:43:51;16.30;46.10
9446;DHT22;4761;49.490;10.908;2022-11-22T16:46:17;16.30;46.10
9446;DHT22;4761;49.490;10.908;2022-11-22T16:48:43;16.30;46.10
9446;DHT22;4761;49.490;10.908;2022-11-22T16:51:14;16.30;46.10
9446;DHT22;4761;49.490;10.908;2022-11-22T16:53:40;16.30;46.10
9446;DHT22;4761;49.490;10.908;2022-11-22T16:56:06;16.20;46.00
9446;DHT22;4761;49.490;10.908;2022-11-22T16:58:32;16.20;46.00
9446;DHT22;4761;49.490;10.908;2022-11-22T17:00:57;16.20;46.10
9446;DHT22;4761;49.490;10.908;2022-11-22T17:03:27;16.20;46.00
9446;DHT22;4761;49.490;10.908;2022-11-22T17:05:58;16.20;46.00
9446;DHT22;4761;49.490;10.908;2022-11-22T17:08:23;16.20;46.00
9446;DHT22;4761;49.490;10.908;2022-11-22T17:10:50;16.20;46.00
9446;DHT22;4761;49.490;10.908;2022-11-22T17:15:44;16.30;46.10
9446;DHT22;4761;49.490;10.908;2022-11-22T17:18:10;16.20;46.00
9446;DHT22;4761;49.490;10.908;2022-11-22T17:20:35;16.20;46.00
9446;DHT22;4761;49.490;10.908;2022-11-22T17:23:03;16.20;46.00
9446;DHT22;4761;49.490;10.908;2022-11-22T17:25:30;16.20;46.00
9446;DHT22;4761;49.490;10.908;2022-11-22T17:27:56;16.20;46.20
9446;DHT22;4761;49.490;10.908;2022-11-22T17:30:22;16.20;46.10
9446;DHT22;4761;49.490;10.908;2022-11-22T17:32:47;16.20;46.10
9446;DHT22;4761;49.490;10.908;2022-11-22T17:35:13;16.20;46.10
9446;DHT22;4761;49.490;10.908;2022-11-22T17:37:38;16.20;46.10
9446;DHT22;4761;49.490;10.908;2022-11-22T17:40:04;16.20;46.10
9446;DHT22;4761;49.490;10.908;2022-11-22T17:42:30;16.20;46.10
9446;DHT22;4761;49.490;10.908;2022-11-22T17:44:55;16.20;46.10
9446;DHT22;4761;49.490;10.908;2022-11-22T17:47:21;16.20;46.10
9446;DHT22;4761;49.490;10.908;2022-11-22T17:49:47;16.20;46.10
9446;DHT22;4761;49.490;10.908;2022-11-22T17:52:13;16.20;46.10
9446;DHT22;4761;49.490;10.908;2022-11-22T17:54:39;16.20;46.10
9446;DHT22;4761;49.490;10.908;2022-11-22T17:57:04;16.20;46.10
9446;DHT22;4761;49.490;10.908;2022-11-22T17:59:30;16.20;46.10
9446;DHT22;4761;49.490;10.908;2022-11-22T18:01:55;16.10;46.00
9446;DHT22;4761;49.490;10.908;2022-11-22T18:04:21;16.20;46.10
9446;DHT22;4761;49.490;10.908;2022-11-22T18:06:47;16.10;46.00